createdAt,value
2022-08-10T00:00:14.709Z,21.30
2022-08-10T00:03:02.164Z,21.20
2022-08-10T00:05:52.623Z,21.10
2022-08-10T00:08:40.083Z,21.10
2022-08-10T00:11:27.179Z,21.00
2022-08-10T00:14:13.825Z,21.00
2022-08-10T00:17:01.697Z,21.00
2022-08-10T00:20:03.436Z,21.00
2022-08-10T00:22:57.794Z,21.00
2022-08-10T00:25:44.976Z,21.00
2022-08-10T00:28:31.925Z,20.90
2022-08-10T00:31:18.367Z,20.90
2022-08-10T00:34:06.120Z,20.90
2022-08-10T00:36:52.665Z,20.80
2022-08-10T00:39:39.736Z,20.80
2022-08-10T00:42:26.603Z,20.70
2022-08-10T00:45:13.479Z,20.70
2022-08-10T00:47:59.947Z,20.70
2022-08-10T00:50:48.304Z,20.60
2022-08-10T00:53:34.881Z,20.40
2022-08-10T00:57:10.107Z,20.40
2022-08-10T00:59:27.935Z,20.30
2022-08-10T01:02:14.406Z,20.20
2022-08-10T01:05:04.164Z,20.20
2022-08-10T01:08:05.424Z,20.10
2022-08-10T01:11:02.917Z,20.00
2022-08-10T01:13:58.013Z,20.00
2022-08-10T01:16:51.277Z,19.90
2022-08-10T01:19:57.625Z,19.80
2022-08-10T01:23:14.236Z,19.80
2022-08-10T01:26:32.036Z,19.80
2022-08-10T01:29:40.021Z,19.70
2022-08-10T01:32:37.297Z,19.60
2022-08-10T01:35:32.354Z,19.60
2022-08-10T01:38:23.198Z,19.60
2022-08-10T01:41:13.328Z,19.50
2022-08-10T01:44:03.927Z,19.50
2022-08-10T01:46:57.462Z,19.50
2022-08-10T01:49:44.011Z,19.40
2022-08-10T01:52:33.176Z,19.40
2022-08-10T01:55:21.870Z,19.30
2022-08-10T01:58:10.510Z,19.20
2022-08-10T02:00:58.446Z,19.30
2022-08-10T02:04:04.427Z,19.30
2022-08-10T02:06:54.695Z,19.30
2022-08-10T02:09:44.851Z,19.20
2022-08-10T02:12:33.763Z,18.70
2022-08-10T02:15:22.236Z,18.70
2022-08-10T02:18:09.680Z,18.50
2022-08-10T02:21:00.261Z,18.60
2022-08-10T02:23:56.140Z,18.50
2022-08-10T02:26:47.788Z,18.50
2022-08-10T02:29:35.978Z,18.60
2022-08-10T02:32:36.069Z,18.50
2022-08-10T02:35:41.177Z,18.60
2022-08-10T02:38:58.597Z,18.60
2022-08-10T02:45:14.974Z,18.40
2022-08-10T02:45:25.560Z,18.50
2022-08-10T02:48:14.543Z,18.50
2022-08-10T02:51:06.501Z,18.50
2022-08-10T02:54:02.331Z,18.50
2022-08-10T02:56:54.810Z,18.40
2022-08-10T02:59:45.599Z,18.40
2022-08-10T03:02:35.376Z,18.30
2022-08-10T03:05:22.308Z,18.40
2022-08-10T03:08:11.650Z,18.30
2022-08-10T03:11:03.305Z,18.30
2022-08-10T03:13:59.918Z,18.20
2022-08-10T03:16:47.635Z,18.20
2022-08-10T03:20:33.595Z,18.10
2022-08-10T03:22:43.261Z,18.20
2022-08-10T03:25:31.702Z,18.10
2022-08-10T03:28:20.824Z,18.00
2022-08-10T03:31:08.270Z,17.60
2022-08-10T03:33:56.314Z,17.90
2022-08-10T03:36:45.097Z,17.90
2022-08-10T03:39:32.011Z,18.00
2022-08-10T03:42:21.233Z,17.90
2022-08-10T03:45:11.010Z,17.90
2022-08-10T03:47:58.002Z,17.90
2022-08-10T03:50:51.017Z,17.90
2022-08-10T03:54:03.537Z,17.80
2022-08-10T03:56:47.175Z,17.80
2022-08-10T03:59:35.259Z,17.80
2022-08-10T04:02:43.823Z,17.80
2022-08-10T04:05:38.485Z,17.70
2022-08-10T04:08:25.549Z,17.70
2022-08-10T04:11:12.301Z,17.60
2022-08-10T04:13:58.664Z,17.70
2022-08-10T04:16:44.989Z,17.70
2022-08-10T04:19:38.693Z,17.70
2022-08-10T04:22:28.102Z,17.60
2022-08-10T04:25:17.076Z,17.60
2022-08-10T04:28:03.600Z,17.60
2022-08-10T04:30:53.392Z,17.60
2022-08-10T04:33:43.396Z,17.60
2022-08-10T04:36:32.531Z,17.60
2022-08-10T04:39:19.453Z,17.60
2022-08-10T04:42:07.144Z,17.30
2022-08-10T04:44:53.910Z,17.60
2022-08-10T04:47:51.246Z,17.70
2022-08-10T04:50:46.745Z,17.70
2022-08-10T04:54:05.148Z,17.70
2022-08-10T04:56:44.181Z,17.70
2022-08-10T04:59:30.452Z,17.70
2022-08-10T05:02:29.034Z,17.80
2022-08-10T05:05:17.721Z,17.80
2022-08-10T05:08:04.493Z,17.90
2022-08-10T05:10:52.498Z,17.90
2022-08-10T05:13:39.129Z,18.00
2022-08-10T05:16:32.312Z,18.00
2022-08-10T05:20:02.332Z,18.00
2022-08-10T05:22:26.446Z,18.10
2022-08-10T05:25:14.695Z,18.20
2022-08-10T05:28:06.297Z,19.70
2022-08-10T05:30:53.175Z,18.30
2022-08-10T05:33:39.616Z,18.30
2022-08-10T05:36:26.198Z,18.20
2022-08-10T05:39:13.474Z,18.30
2022-08-10T05:42:02.501Z,18.30
2022-08-10T05:44:51.808Z,18.30
2022-08-10T05:48:54.100Z,18.50
2022-08-10T05:50:45.985Z,18.40
2022-08-10T05:54:02.863Z,18.50
2022-08-10T05:56:56.057Z,18.60
2022-08-10T06:00:34.551Z,18.60
2022-08-10T06:03:01.208Z,18.50
2022-08-10T06:05:48.723Z,18.80
2022-08-10T06:08:36.991Z,18.70
2022-08-10T06:12:25.592Z,18.70
2022-08-10T06:14:59.480Z,18.80
2022-08-10T06:17:46.969Z,18.80
2022-08-10T06:20:50.778Z,18.90
2022-08-10T06:23:38.983Z,18.90
2022-08-10T06:26:25.757Z,18.90
2022-08-10T06:29:14.530Z,18.90
2022-08-10T06:32:02.056Z,18.90
2022-08-10T06:34:51.960Z,19.10
2022-08-10T06:37:41.993Z,19.10
2022-08-10T06:40:33.619Z,19.30
2022-08-10T06:43:23.044Z,19.40
2022-08-10T06:46:16.751Z,19.40
2022-08-10T06:49:06.803Z,19.50
2022-08-10T06:51:57.313Z,19.60
2022-08-10T06:54:46.247Z,19.60
2022-08-10T06:57:35.583Z,19.60
2022-08-10T07:00:23.367Z,19.80
2022-08-10T07:03:22.265Z,19.90
2022-08-10T07:06:12.332Z,20.00
2022-08-10T07:09:00.853Z,20.00
2022-08-10T07:11:50.823Z,20.10
2022-08-10T07:14:44.612Z,20.10
2022-08-10T07:17:37.338Z,20.20
2022-08-10T07:20:28.308Z,20.40
2022-08-10T07:23:55.435Z,20.60
2022-08-10T07:26:26.431Z,20.70
2022-08-10T07:29:26.321Z,20.70
2022-08-10T07:32:24.053Z,20.80
2022-08-10T07:35:14.537Z,20.80
2022-08-10T07:38:04.123Z,21.00
2022-08-10T07:40:54.173Z,21.10
2022-08-10T07:43:42.926Z,21.20
2022-08-10T07:46:32.039Z,21.40
2022-08-10T07:49:21.989Z,21.50
2022-08-10T07:52:10.864Z,21.60
2022-08-10T07:54:58.365Z,21.60
2022-08-10T07:57:47.621Z,21.80
2022-08-10T08:00:35.487Z,21.90
2022-08-10T08:03:27.413Z,21.90
2022-08-10T08:06:14.956Z,22.10
2022-08-10T08:09:04.340Z,22.20
2022-08-10T08:11:52.579Z,22.30
2022-08-10T08:14:41.617Z,22.30
2022-08-10T08:17:36.482Z,22.40
2022-08-10T08:20:25.641Z,22.60
2022-08-10T08:24:06.315Z,22.60
2022-08-10T08:26:24.160Z,22.80
2022-08-10T08:29:18.003Z,23.00
2022-08-10T08:32:05.213Z,23.00
2022-08-10T08:34:57.416Z,23.10
2022-08-10T08:38:29.909Z,23.20
2022-08-10T08:41:07.223Z,23.30
2022-08-10T08:44:05.262Z,23.50
2022-08-10T08:47:18.868Z,23.70
2022-08-10T08:50:35.965Z,23.80
2022-08-10T08:54:00.999Z,23.90
2022-08-10T08:56:50.869Z,24.10
2022-08-10T08:59:54.401Z,24.20
2022-08-10T09:03:19.729Z,24.40
2022-08-10T09:06:17.085Z,24.50
2022-08-10T09:09:38.372Z,24.60
2022-08-10T09:12:42.018Z,24.70
2022-08-10T09:15:40.510Z,24.90
2022-08-10T09:18:34.966Z,25.00
2022-08-10T09:21:30.652Z,25.10
2022-08-10T09:24:22.865Z,25.30
2022-08-10T09:27:20.294Z,25.40
2022-08-10T09:30:10.532Z,25.60
2022-08-10T09:36:24.403Z,25.60
2022-08-10T09:36:33.223Z,25.70
2022-08-10T09:40:12.725Z,25.80
2022-08-10T09:42:44.133Z,25.80
2022-08-10T09:45:45.571Z,25.80
2022-08-10T09:48:39.313Z,26.00
2022-08-10T09:51:45.217Z,26.30
2022-08-10T09:54:48.831Z,26.30
2022-08-10T09:57:50.776Z,26.40
2022-08-10T10:00:45.911Z,26.60
2022-08-10T10:03:41.307Z,26.60
2022-08-10T10:06:37.795Z,26.80
2022-08-10T10:09:32.039Z,26.70
2022-08-10T10:12:28.088Z,26.80
2022-08-10T10:15:25.939Z,27.00
2022-08-10T10:18:23.483Z,27.20
2022-08-10T10:21:54.029Z,27.20
2022-08-10T10:24:34.433Z,27.40
2022-08-10T10:27:33.069Z,27.40
2022-08-10T10:30:23.945Z,27.60
2022-08-10T10:33:14.686Z,27.60
2022-08-10T10:36:02.151Z,27.50
2022-08-10T10:38:49.937Z,27.70
2022-08-10T10:42:03.823Z,27.80
2022-08-10T10:45:04.492Z,27.90
2022-08-10T10:48:04.669Z,28.10
2022-08-10T10:51:00.016Z,28.30
2022-08-10T10:53:55.710Z,28.40
2022-08-10T10:56:53.300Z,28.40
2022-08-10T10:59:55.230Z,28.30
2022-08-10T11:02:54.972Z,28.20
2022-08-10T11:05:54.700Z,28.40
2022-08-10T11:08:52.019Z,28.40
2022-08-10T11:12:01.497Z,28.60
2022-08-10T11:14:56.123Z,28.60
2022-08-10T11:17:49.903Z,28.70
2022-08-10T11:20:43.533Z,28.80
2022-08-10T11:23:40.393Z,29.00
2022-08-10T11:26:33.157Z,28.90
2022-08-10T11:29:25.351Z,28.90
2022-08-10T11:32:21.263Z,29.10
2022-08-10T11:35:15.674Z,29.30
2022-08-10T11:38:32.266Z,29.50
2022-08-10T11:42:12.276Z,29.30
2022-08-10T11:44:44.509Z,29.40
2022-08-10T11:47:40.432Z,29.40
2022-08-10T11:50:32.423Z,29.40
2022-08-10T11:53:24.045Z,29.50
2022-08-10T11:56:13.804Z,29.70
2022-08-10T11:59:19.103Z,29.80
2022-08-10T12:02:07.635Z,29.90
2022-08-10T12:04:58.948Z,30.00
2022-08-10T12:10:07.578Z,30.00
2022-08-10T12:10:55.877Z,30.00
2022-08-10T12:14:10.683Z,30.20
2022-08-10T12:17:03.165Z,30.20
2022-08-10T12:22:23.149Z,30.00
2022-08-10T12:25:18.089Z,30.00
2022-08-10T12:28:33.255Z,30.20
2022-08-10T12:31:39.810Z,30.20
2022-08-10T12:34:31.827Z,30.50
2022-08-10T12:37:23.867Z,30.70
2022-08-10T12:40:35.767Z,30.60
2022-08-10T12:46:16.829Z,30.80
2022-08-10T12:49:10.270Z,30.90
2022-08-10T12:52:05.025Z,30.90
2022-08-10T12:54:54.645Z,30.80
2022-08-10T12:57:42.137Z,31.10
2022-08-10T13:00:35.066Z,31.10
2022-08-10T13:04:22.398Z,31.00
2022-08-10T13:06:31.500Z,31.00
2022-08-10T13:09:23.403Z,31.10
2022-08-10T13:12:35.886Z,31.10
2022-08-10T13:15:49.912Z,31.10
2022-08-10T13:18:35.897Z,31.40
2022-08-10T13:21:22.755Z,31.60
2022-08-10T13:24:12.968Z,31.50
2022-08-10T13:27:24.939Z,31.60
2022-08-10T13:30:11.716Z,31.50
2022-08-10T13:32:59.557Z,31.60
2022-08-10T13:35:46.921Z,31.60
2022-08-10T13:38:34.629Z,31.90
2022-08-10T13:41:21.814Z,31.90
2022-08-10T13:44:12.340Z,31.90
2022-08-10T13:46:59.018Z,31.50
2022-08-10T13:49:49.641Z,31.60
2022-08-10T13:52:37.666Z,31.70
2022-08-10T13:55:27.093Z,32.00
2022-08-10T13:58:36.890Z,31.60
2022-08-10T14:01:27.925Z,31.80
2022-08-10T14:04:15.263Z,31.90
2022-08-10T14:07:02.245Z,31.90
2022-08-10T14:09:50.434Z,32.00
2022-08-10T14:12:38.818Z,32.00
2022-08-10T14:15:30.234Z,31.90
2022-08-10T14:18:19.877Z,32.10
2022-08-10T14:21:06.713Z,32.30
2022-08-10T14:23:53.999Z,32.10
2022-08-10T14:26:43.202Z,32.10
2022-08-10T14:29:31.045Z,32.10
2022-08-10T14:32:22.600Z,32.30
2022-08-10T14:36:19.977Z,32.30
2022-08-10T14:38:22.679Z,31.90
2022-08-10T14:42:04.552Z,32.10
2022-08-10T14:44:28.260Z,32.40
2022-08-10T14:47:53.244Z,32.20
2022-08-10T14:50:32.035Z,32.10
2022-08-10T14:53:26.615Z,32.30
2022-08-10T14:56:16.542Z,32.30
2022-08-10T14:59:06.624Z,32.50
2022-08-10T15:02:38.519Z,32.30
2022-08-10T15:05:10.282Z,32.30
2022-08-10T15:07:59.735Z,32.20
2022-08-10T15:10:50.878Z,32.10
2022-08-10T15:13:37.915Z,32.10
2022-08-10T15:16:30.033Z,32.50
2022-08-10T15:20:01.522Z,32.20
2022-08-10T15:22:38.343Z,32.30
2022-08-10T15:25:28.422Z,32.30
2022-08-10T15:28:18.087Z,32.60
2022-08-10T15:31:05.334Z,32.30
2022-08-10T15:34:11.542Z,32.40
2022-08-10T15:37:39.526Z,32.10
2022-08-10T15:40:30.723Z,32.40
2022-08-10T15:43:25.722Z,32.30
2022-08-10T15:46:18.933Z,32.20
2022-08-10T15:49:11.253Z,32.20
2022-08-10T15:52:05.310Z,32.50
2022-08-10T15:54:55.893Z,32.80
2022-08-10T15:57:46.812Z,32.60
2022-08-10T16:00:38.703Z,32.80
2022-08-10T16:03:33.600Z,32.50
2022-08-10T16:06:29.603Z,32.50
2022-08-10T16:10:23.583Z,32.50
2022-08-10T16:12:34.075Z,32.30
2022-08-10T16:15:24.093Z,32.20
2022-08-10T16:18:15.296Z,32.20
2022-08-10T16:21:03.989Z,32.70
2022-08-10T16:24:12.810Z,33.00
2022-08-10T16:27:06.607Z,32.70
2022-08-10T16:29:59.449Z,32.70
2022-08-10T16:32:47.554Z,32.30
2022-08-10T16:35:37.060Z,32.70
2022-08-10T16:38:25.644Z,32.80
2022-08-10T16:42:04.567Z,32.70
2022-08-10T16:44:23.849Z,32.60
2022-08-10T16:47:13.368Z,32.40
2022-08-10T16:50:02.645Z,32.30
2022-08-10T16:52:53.211Z,32.70
2022-08-10T16:55:48.079Z,32.90
2022-08-10T16:58:39.135Z,32.90
2022-08-10T17:01:28.946Z,33.00
2022-08-10T17:04:17.605Z,33.00
2022-08-10T17:07:08.721Z,32.50
2022-08-10T17:09:57.428Z,32.70
2022-08-10T17:12:50.942Z,32.50
2022-08-10T17:15:40.412Z,32.60
2022-08-10T17:18:29.697Z,32.80
2022-08-10T17:21:23.096Z,32.80
2022-08-10T17:24:11.920Z,32.20
2022-08-10T17:28:05.003Z,32.60
2022-08-10T17:30:33.814Z,32.50
2022-08-10T17:33:22.493Z,32.50
2022-08-10T17:36:10.073Z,32.20
2022-08-10T17:38:58.131Z,32.10
2022-08-10T17:41:49.055Z,31.70
2022-08-10T17:44:40.776Z,31.50
2022-08-10T17:47:28.214Z,31.10
2022-08-10T17:50:14.949Z,31.10
2022-08-10T17:53:03.791Z,30.90
2022-08-10T17:55:55.624Z,30.70
2022-08-10T17:58:48.967Z,30.60
2022-08-10T18:01:58.353Z,30.50
2022-08-10T18:04:49.613Z,30.40
2022-08-10T18:07:39.110Z,30.30
2022-08-10T18:10:27.301Z,30.10
2022-08-10T18:13:18.733Z,30.00
2022-08-10T18:16:07.051Z,29.90
2022-08-10T18:19:00.843Z,29.90
2022-08-10T18:21:49.651Z,29.80
2022-08-10T18:24:38.836Z,29.80
2022-08-10T18:28:00.614Z,29.70
2022-08-10T18:30:37.626Z,29.60
2022-08-10T18:33:30.044Z,29.50
2022-08-10T18:36:19.796Z,29.40
2022-08-10T18:39:08.058Z,29.20
2022-08-10T18:42:00.147Z,29.20
2022-08-10T18:45:00.244Z,29.10
2022-08-10T18:47:59.369Z,29.00
2022-08-10T18:50:50.549Z,28.80
2022-08-10T18:53:48.061Z,28.70
2022-08-10T18:56:50.219Z,28.60
2022-08-10T19:00:07.622Z,28.50
2022-08-10T19:03:22.628Z,28.30
2022-08-10T19:06:20.321Z,28.10
2022-08-10T19:09:47.562Z,28.00
2022-08-10T19:12:51.741Z,27.90
2022-08-10T19:15:45.113Z,27.70
2022-08-10T19:18:38.930Z,27.60
2022-08-10T19:21:33.093Z,27.50
2022-08-10T19:24:28.538Z,27.40
2022-08-10T19:27:28.501Z,27.20
2022-08-10T19:30:17.717Z,27.10
2022-08-10T19:33:18.802Z,27.00
2022-08-10T19:36:13.317Z,26.90
2022-08-10T19:39:20.258Z,26.80
2022-08-10T19:42:15.349Z,26.70
2022-08-10T19:45:10.767Z,26.50
2022-08-10T19:48:39.238Z,26.40
2022-08-10T19:51:30.431Z,26.40
2022-08-10T19:54:21.543Z,26.30
2022-08-10T19:57:14.483Z,26.20
2022-08-10T20:00:19.196Z,26.10
2022-08-10T20:03:16.728Z,26.10
2022-08-10T20:06:13.408Z,26.00
2022-08-10T20:09:13.762Z,25.90
2022-08-10T20:12:04.104Z,25.80
2022-08-10T20:15:02.001Z,25.70
2022-08-10T20:17:55.801Z,25.60
2022-08-10T20:20:49.529Z,25.50
2022-08-10T20:23:37.998Z,25.40
2022-08-10T20:26:27.989Z,25.20
2022-08-10T20:29:57.154Z,25.00
2022-08-10T20:32:27.261Z,24.90
2022-08-10T20:35:25.466Z,25.10
2022-08-10T20:38:18.517Z,25.00
2022-08-10T20:41:17.477Z,24.90
2022-08-10T20:44:16.144Z,24.80
2022-08-10T20:47:09.972Z,24.70
2022-08-10T20:50:07.475Z,24.70
2022-08-10T20:52:54.401Z,24.60
2022-08-10T20:55:53.876Z,24.50
2022-08-10T20:59:08.885Z,24.50
2022-08-10T21:02:11.733Z,24.40
2022-08-10T21:05:15.793Z,24.40
2022-08-10T21:08:14.632Z,24.30
2022-08-10T21:11:09.019Z,24.30
2022-08-10T21:14:08.862Z,24.30
2022-08-10T21:17:16.211Z,24.10
2022-08-10T21:20:30.987Z,24.00
2022-08-10T21:23:20.682Z,23.90
2022-08-10T21:26:11.174Z,23.70
2022-08-10T21:29:19.622Z,23.70
2022-08-10T21:32:19.446Z,23.60
2022-08-10T21:35:20.346Z,23.70
2022-08-10T21:38:28.625Z,23.70
2022-08-10T21:41:57.025Z,23.50
2022-08-10T21:45:14.016Z,23.50
2022-08-10T21:48:30.684Z,23.40
2022-08-10T21:52:00.330Z,23.30
2022-08-10T21:55:12.841Z,23.30
2022-08-10T21:58:24.041Z,23.10
2022-08-10T22:01:39.719Z,23.10
2022-08-10T22:08:15.026Z,23.00
2022-08-10T22:11:21.620Z,22.90
2022-08-10T22:14:27.235Z,22.90
2022-08-10T22:18:10.169Z,22.80
2022-08-10T22:21:04.976Z,22.80
2022-08-10T22:24:25.025Z,22.70
2022-08-10T22:31:25.745Z,23.10
2022-08-10T22:31:29.177Z,22.60
2022-08-10T22:31:29.961Z,22.60
2022-08-10T22:35:05.819Z,22.60
2022-08-10T22:38:23.282Z,22.60
2022-08-10T22:41:38.221Z,21.90
2022-08-10T22:44:43.907Z,22.20
2022-08-10T22:47:51.072Z,22.20
2022-08-10T22:50:42.733Z,22.30
2022-08-10T22:53:50.058Z,22.30
2022-08-10T22:56:58.091Z,22.20
2022-08-10T22:59:44.713Z,22.20
2022-08-10T23:02:33.762Z,22.10
2022-08-10T23:05:30.135Z,22.00
2022-08-10T23:08:30.590Z,21.90
2022-08-10T23:11:22.034Z,21.80
2022-08-10T23:14:12.336Z,21.80
2022-08-10T23:17:16.033Z,21.80
2022-08-10T23:20:08.168Z,21.70
2022-08-10T23:23:07.443Z,21.70
2022-08-10T23:25:58.693Z,21.70
2022-08-10T23:28:58.631Z,21.60
2022-08-10T23:32:07.126Z,21.20
2022-08-10T23:36:29.455Z,21.50
2022-08-10T23:38:02.088Z,21.50
2022-08-10T23:40:50.955Z,21.40
2022-08-10T23:44:03.205Z,21.40
2022-08-10T23:46:51.302Z,21.30
2022-08-10T23:49:40.821Z,21.30
2022-08-10T23:52:31.192Z,21.20
2022-08-10T23:55:23.433Z,21.20
2022-08-10T23:58:31.689Z,21.20
